createdAt,value
2019-03-12T00:00:44.597Z,72.63
2019-03-12T00:03:34.554Z,72.63
2019-03-12T00:06:24.895Z,73.17
2019-03-12T00:09:27.594Z,73.12
2019-03-12T00:12:00.450Z,73.12
2019-03-12T00:14:50.401Z,73.19
2019-03-12T00:17:40.287Z,72.83
2019-03-12T00:20:30.153Z,73.15
2019-03-12T00:23:20.013Z,72.86
2019-03-12T00:26:09.878Z,72.87
2019-03-12T00:28:59.723Z,73.44
2019-03-12T00:31:49.573Z,73.67
2019-03-12T00:34:39.399Z,74.08
2019-03-12T00:37:40.623Z,74.42
2019-03-12T00:40:12.534Z,74.42
2019-03-12T00:43:02.403Z,74.25
2019-03-12T00:45:52.260Z,74.20
2019-03-12T00:48:42.149Z,74.31
2019-03-12T00:51:31.978Z,74.07
2019-03-12T00:54:21.819Z,73.52
2019-03-12T00:57:11.648Z,73.37
2019-03-12T00:59:42.177Z,73.32
2019-03-12T01:02:32.008Z,73.92
2019-03-12T01:05:33.242Z,73.23
2019-03-12T01:08:17.276Z,73.15
2019-03-12T01:10:48.627Z,73.15
2019-03-12T01:13:38.517Z,72.58
2019-03-12T01:16:40.292Z,71.89
2019-03-12T01:19:24.228Z,71.72
2019-03-12T01:21:54.788Z,71.72
2019-03-12T01:24:44.648Z,71.56
2019-03-12T01:27:34.507Z,70.92
2019-03-12T01:30:36.327Z,70.70
2019-03-12T01:33:21.427Z,70.45
2019-03-12T01:35:54.727Z,70.45
2019-03-12T01:38:44.616Z,69.96
2019-03-12T01:41:34.471Z,70.20
2019-03-12T01:44:24.317Z,69.91
2019-03-12T01:46:54.780Z,69.95
2019-03-12T01:49:44.615Z,70.37
2019-03-12T01:52:34.496Z,70.44
2019-03-12T01:55:36.497Z,71.10
2019-03-12T01:58:21.849Z,71.67
2019-03-12T02:00:54.982Z,71.67
2019-03-12T02:04:03.822Z,71.99
2019-03-12T02:06:53.629Z,71.99
2019-03-12T02:09:55.177Z,70.48
2019-03-12T02:12:38.246Z,71.38
2019-03-12T02:15:21.980Z,72.36
2019-03-12T02:17:54.890Z,72.36
2019-03-12T02:20:44.742Z,72.49
2019-03-12T02:23:46.540Z,72.25
2019-03-12T02:26:30.654Z,72.99
2019-03-12T02:29:02.749Z,72.99
2019-03-12T02:32:06.217Z,72.43
2019-03-12T02:34:49.954Z,72.99
2019-03-12T02:37:32.437Z,72.15
2019-03-12T02:40:03.996Z,72.15
2019-03-12T02:43:05.794Z,72.39
2019-03-12T02:45:50.821Z,71.99
2019-03-12T02:48:24.070Z,71.99
2019-03-12T02:51:32.906Z,71.44
2019-03-12T02:54:34.031Z,71.36
2019-03-12T02:57:17.793Z,71.77
2019-03-12T03:00:03.048Z,71.56
2019-03-12T03:02:34.105Z,71.56
2019-03-12T03:08:38.376Z,72.52
2019-03-12T03:11:09.225Z,72.52
2019-03-12T03:13:59.065Z,73.12
2019-03-12T03:16:48.914Z,73.48
2019-03-12T03:19:50.640Z,73.47
2019-03-12T03:22:32.611Z,73.93
2019-03-12T03:28:06.678Z,73.90
2019-03-12T03:31:08.602Z,74.60
2019-03-12T03:33:51.060Z,75.05
2019-03-12T03:36:35.946Z,75.36
2019-03-12T03:39:07.339Z,75.36
2019-03-12T03:41:57.156Z,75.14
2019-03-12T03:44:58.875Z,75.60
2019-03-12T03:47:42.540Z,75.58
2019-03-12T03:50:13.722Z,75.58
2019-03-12T03:53:03.562Z,75.93
2019-03-12T03:55:53.446Z,76.18
2019-03-12T03:58:43.265Z,76.43
2019-03-12T04:01:44.412Z,76.90
2019-03-12T04:04:15.434Z,76.90
2019-03-12T04:07:17.091Z,76.71
2019-03-12T04:10:03.218Z,76.77
2019-03-12T04:12:48.134Z,76.24
2019-03-12T04:15:34.031Z,76.07
2019-03-12T04:18:18.867Z,75.98
2019-03-12T04:20:51.436Z,75.98
2019-03-12T04:24:00.277Z,75.92
2019-03-12T04:26:52.236Z,75.93
2019-03-12T04:29:42.086Z,75.89
2019-03-12T04:32:43.962Z,75.56
2019-03-12T04:35:26.940Z,75.79
2019-03-12T04:38:09.704Z,75.27
2019-03-12T04:40:54.554Z,75.42
2019-03-12T04:43:26.011Z,75.42
2019-03-12T04:46:15.980Z,75.24
2019-03-12T04:49:17.469Z,74.92
2019-03-12T04:51:59.709Z,74.96
2019-03-12T04:54:41.924Z,74.72
2019-03-12T04:57:24.593Z,74.83
2019-03-12T05:00:09.126Z,75.47
2019-03-12T05:02:40.603Z,75.47
2019-03-12T05:05:42.079Z,74.40
2019-03-12T05:08:12.619Z,74.40
2019-03-12T05:10:55.853Z,74.50
2019-03-12T05:13:29.695Z,74.50
2019-03-12T05:16:19.550Z,74.65
2019-03-12T05:19:09.421Z,74.61
2019-03-12T05:21:59.277Z,74.68
2019-03-12T05:24:49.116Z,74.42
2019-03-12T05:27:50.790Z,73.40
2019-03-12T05:30:21.892Z,73.40
2019-03-12T05:33:11.759Z,73.17
2019-03-12T05:35:42.278Z,73.46
2019-03-12T05:38:32.153Z,73.49
2019-03-12T05:41:22.026Z,73.40
2019-03-12T05:44:23.554Z,73.01
2019-03-12T05:47:08.107Z,72.65
2019-03-12T05:49:40.879Z,72.65
2019-03-12T05:52:49.793Z,73.00
2019-03-12T05:55:39.625Z,73.00
2019-03-12T05:58:29.422Z,72.27
2019-03-12T06:01:11.273Z,72.74
2019-03-12T06:03:42.144Z,72.74
2019-03-12T06:06:32.015Z,72.98
2019-03-12T06:09:33.465Z,72.17
2019-03-12T06:12:17.303Z,72.98
2019-03-12T06:14:48.938Z,72.98
2019-03-12T06:17:50.483Z,71.82
2019-03-12T06:20:22.014Z,71.82
2019-03-12T06:23:15.063Z,71.40
2019-03-12T06:25:54.617Z,70.94
2019-03-12T06:28:56.307Z,70.85
2019-03-12T06:31:47.826Z,70.85
2019-03-12T06:34:44.888Z,70.72
2019-03-12T06:37:55.025Z,70.15
2019-03-12T06:41:03.784Z,70.15
2019-03-12T06:44:26.923Z,70.21
2019-03-12T06:47:05.479Z,70.21
2019-03-12T06:50:25.932Z,69.97
2019-03-12T06:53:34.700Z,70.12
2019-03-12T06:56:43.380Z,69.85
2019-03-12T06:59:52.085Z,70.94
2019-03-12T07:03:15.428Z,73.67
2019-03-12T07:06:05.025Z,73.67
2019-03-12T07:09:13.722Z,74.55
2019-03-12T07:12:11.659Z,73.87
2019-03-12T07:15:30.514Z,74.18
2019-03-12T07:18:39.508Z,74.18
2019-03-12T07:21:49.251Z,74.15
2019-03-12T07:24:57.982Z,73.05
2019-03-12T07:28:06.768Z,72.32
2019-03-12T07:31:15.639Z,71.89
2019-03-12T07:34:36.131Z,70.70
2019-03-12T07:37:23.118Z,70.14
2019-03-12T07:40:31.801Z,70.14
2019-03-12T07:43:52.225Z,68.61
2019-03-12T07:47:03.473Z,67.19
2019-03-12T07:50:12.281Z,67.19
2019-03-12T07:53:03.226Z,64.92
2019-03-12T07:56:09.360Z,63.57
2019-03-12T07:59:18.050Z,63.82
2019-03-12T08:01:59.618Z,61.63
2019-03-12T08:04:43.730Z,59.68
2019-03-12T08:07:34.267Z,58.30
2019-03-12T08:10:24.445Z,57.57
2019-03-12T08:13:14.612Z,58.02
2019-03-12T08:16:10.221Z,57.91
2019-03-12T08:19:19.037Z,56.85
2019-03-12T08:22:27.793Z,58.26
2019-03-12T08:25:36.915Z,58.12
2019-03-12T08:28:33.370Z,57.39
2019-03-12T08:31:25.432Z,57.47
2019-03-12T08:34:34.145Z,58.15
2019-03-12T08:37:40.131Z,57.39
2019-03-12T08:40:51.947Z,58.26
2019-03-12T08:43:43.413Z,57.83
2019-03-12T08:46:52.101Z,58.70
2019-03-12T08:50:00.839Z,58.15
2019-03-12T08:53:09.575Z,58.79
2019-03-12T08:56:18.314Z,56.69
2019-03-12T08:59:07.654Z,57.56
2019-03-12T09:02:16.519Z,56.14
2019-03-12T09:05:27.894Z,57.23
2019-03-12T09:08:36.683Z,57.67
2019-03-12T09:11:45.392Z,56.82
2019-03-12T09:14:54.101Z,56.28
2019-03-12T09:18:02.816Z,56.62
2019-03-12T09:21:11.514Z,56.16
2019-03-12T09:24:20.216Z,55.43
2019-03-12T09:27:28.941Z,54.73
2019-03-12T09:30:39.688Z,52.57
2019-03-12T09:33:24.324Z,52.08
2019-03-12T09:36:13.715Z,51.88
2019-03-12T09:39:22.482Z,51.17
2019-03-12T09:42:31.187Z,49.13
2019-03-12T09:48:42.813Z,48.35
2019-03-12T09:51:40.215Z,49.04
2019-03-12T09:54:48.930Z,48.69
2019-03-12T09:57:57.713Z,49.32
2019-03-12T10:01:06.440Z,48.07
2019-03-12T10:04:15.172Z,44.52
2019-03-12T10:07:23.875Z,44.76
2019-03-12T10:10:32.598Z,43.90
2019-03-12T10:13:41.337Z,44.63
2019-03-12T10:16:50.033Z,43.98
2019-03-12T10:19:58.778Z,44.50
2019-03-12T10:26:08.992Z,45.37
2019-03-12T10:29:17.672Z,45.96
2019-03-12T10:32:26.369Z,45.42
2019-03-12T10:35:35.126Z,45.50
2019-03-12T10:39:10.970Z,46.40
2019-03-12T10:42:05.938Z,50.88
2019-03-12T10:45:03.833Z,52.38
2019-03-12T10:47:54.100Z,52.71
2019-03-12T10:50:43.979Z,50.82
2019-03-12T10:53:33.845Z,48.82
2019-03-12T10:56:35.623Z,49.16
2019-03-12T10:59:08.303Z,47.47
2019-03-12T11:01:58.182Z,44.58
2019-03-12T11:04:48.069Z,45.59
2019-03-12T11:07:37.927Z,44.64
2019-03-12T11:10:27.857Z,44.98
2019-03-12T11:13:36.724Z,46.27
2019-03-12T11:16:26.602Z,47.17
2019-03-12T11:19:16.476Z,50.14
2019-03-12T11:22:06.363Z,57.12
2019-03-12T11:24:56.254Z,62.46
2019-03-12T11:27:46.408Z,62.50
2019-03-12T11:30:55.151Z,58.57
2019-03-12T11:33:25.581Z,61.35
2019-03-12T11:36:15.455Z,61.97
2019-03-12T11:42:07.658Z,57.82
2019-03-12T11:44:58.307Z,54.44
2019-03-12T11:47:48.530Z,53.86
2019-03-12T11:50:39.677Z,53.81
2019-03-12T11:53:29.580Z,51.25
2019-03-12T11:56:19.425Z,49.32
2019-03-12T11:59:09.336Z,48.96
2019-03-12T12:01:59.235Z,49.13
2019-03-12T12:04:49.100Z,47.97
2019-03-12T12:07:38.951Z,50.36
2019-03-12T12:10:28.937Z,51.81
2019-03-12T12:13:18.802Z,50.73
2019-03-12T12:19:11.821Z,49.48
2019-03-12T12:22:01.695Z,49.61
2019-03-12T12:27:55.683Z,48.72
2019-03-12T12:30:45.505Z,49.26
2019-03-12T12:33:35.365Z,50.03
2019-03-12T12:36:07.539Z,48.94
2019-03-12T12:38:57.393Z,48.64
2019-03-12T12:41:47.204Z,48.14
2019-03-12T12:44:37.059Z,48.20
2019-03-12T12:47:26.864Z,47.81
2019-03-12T12:53:19.846Z,48.48
2019-03-12T12:56:09.745Z,49.31
2019-03-12T12:58:40.230Z,48.22
2019-03-12T13:04:33.743Z,49.61
2019-03-12T13:07:35.122Z,49.06
2019-03-12T13:10:09.260Z,49.89
2019-03-12T13:12:59.117Z,49.20
2019-03-12T13:15:49.287Z,47.23
2019-03-12T13:18:39.136Z,47.64
2019-03-12T13:21:29.043Z,46.34
2019-03-12T13:23:59.474Z,44.74
2019-03-12T13:26:49.353Z,45.29
2019-03-12T13:29:39.163Z,46.20
2019-03-12T13:32:29.120Z,47.30
2019-03-12T13:35:19.140Z,49.15
2019-03-12T13:38:08.999Z,49.85
2019-03-12T13:41:02.913Z,50.05
2019-03-12T13:43:36.521Z,50.43
2019-03-12T13:46:26.416Z,50.59
2019-03-12T13:49:16.349Z,50.30
2019-03-12T13:52:06.198Z,50.20
2019-03-12T13:54:56.056Z,49.97
2019-03-12T13:57:46.038Z,49.83
2019-03-12T14:00:35.902Z,49.07
2019-03-12T14:03:25.856Z,48.21
2019-03-12T14:06:15.865Z,48.99
2019-03-12T14:08:46.313Z,48.92
2019-03-12T14:11:36.189Z,47.66
2019-03-12T14:14:26.097Z,47.51
2019-03-12T14:17:15.946Z,46.56
2019-03-12T14:23:15.441Z,43.38
2019-03-12T14:26:05.275Z,41.45
2019-03-12T14:28:55.201Z,39.13
2019-03-12T14:31:45.427Z,37.54
2019-03-12T14:34:35.291Z,35.64
2019-03-12T14:37:25.129Z,33.18
2019-03-12T14:40:15.040Z,32.97
2019-03-12T14:43:05.095Z,36.05
2019-03-12T14:49:18.398Z,36.84
2019-03-12T14:52:15.302Z,36.33
2019-03-12T14:54:48.038Z,36.24
2019-03-12T14:57:37.913Z,38.31
2019-03-12T15:00:13.239Z,37.77
2019-03-12T15:02:43.657Z,38.85
2019-03-12T15:05:33.531Z,39.18
2019-03-12T15:08:23.536Z,37.22
2019-03-12T15:11:13.418Z,33.54
2019-03-12T15:13:43.956Z,32.02
2019-03-12T15:16:33.834Z,31.68
2019-03-12T15:19:23.693Z,30.87
2019-03-12T15:22:13.620Z,30.35
2019-03-12T15:24:44.164Z,28.78
2019-03-12T15:27:34.018Z,27.32
2019-03-12T15:30:23.912Z,26.53
2019-03-12T15:33:13.764Z,29.91
2019-03-12T15:36:03.628Z,34.20
2019-03-12T15:38:53.491Z,36.84
2019-03-12T15:41:43.348Z,35.12
2019-03-12T15:44:33.211Z,34.60
2019-03-12T15:47:23.133Z,33.03
2019-03-12T15:53:16.588Z,33.74
2019-03-12T15:56:06.426Z,33.60
2019-03-12T15:58:36.932Z,33.71
2019-03-12T16:01:26.773Z,34.51
2019-03-12T16:04:17.040Z,33.85
2019-03-12T16:07:06.854Z,34.77
2019-03-12T16:09:56.740Z,35.02
2019-03-12T16:12:46.555Z,35.34
2019-03-12T16:15:37.850Z,34.31
2019-03-12T16:18:28.037Z,34.11
2019-03-12T16:21:17.927Z,34.49
2019-03-12T16:24:07.810Z,34.34
2019-03-12T16:26:57.676Z,35.67
2019-03-12T16:29:47.530Z,36.38
2019-03-12T16:32:37.413Z,36.92
2019-03-12T16:35:27.277Z,40.17
2019-03-12T16:38:17.178Z,41.65
2019-03-12T16:41:07.259Z,43.38
2019-03-12T16:43:57.152Z,44.61
2019-03-12T16:46:46.993Z,45.91
2019-03-12T16:49:36.860Z,47.07
2019-03-12T16:52:26.719Z,47.01
2019-03-12T16:55:16.623Z,47.44
2019-03-12T16:58:06.434Z,48.49
2019-03-12T17:00:56.299Z,48.88
2019-03-12T17:03:46.131Z,49.09
2019-03-12T17:06:35.969Z,49.81
2019-03-12T17:09:25.805Z,49.39
2019-03-12T17:12:15.721Z,49.93
2019-03-12T17:15:06.026Z,49.92
2019-03-12T17:17:55.883Z,50.52
2019-03-12T17:20:45.768Z,50.55
2019-03-12T17:23:35.658Z,50.90
2019-03-12T17:26:06.072Z,51.27
2019-03-12T17:28:55.923Z,51.29
2019-03-12T17:31:45.825Z,51.30
2019-03-12T17:34:36.408Z,52.06
2019-03-12T17:37:18.915Z,52.95
2019-03-12T17:40:11.792Z,53.12
2019-03-12T17:42:43.300Z,54.07
2019-03-12T17:45:33.253Z,54.00
2019-03-12T17:48:23.426Z,53.45
2019-03-12T17:51:13.307Z,52.61
2019-03-12T17:53:43.803Z,52.79
2019-03-12T17:56:33.645Z,52.74
2019-03-12T17:59:23.497Z,52.58
2019-03-12T18:02:13.451Z,52.49
2019-03-12T18:04:43.942Z,52.14
2019-03-12T18:07:33.827Z,52.39
2019-03-12T18:10:23.677Z,52.03
2019-03-12T18:13:13.742Z,53.01
2019-03-12T18:15:44.184Z,53.24
2019-03-12T18:18:34.040Z,54.09
2019-03-12T18:21:24.185Z,54.84
2019-03-12T18:24:14.101Z,54.65
2019-03-12T18:27:03.945Z,54.56
2019-03-12T18:29:53.884Z,55.15
2019-03-12T18:32:24.298Z,55.77
2019-03-12T18:35:14.336Z,57.18
2019-03-12T18:38:04.283Z,58.63
2019-03-12T18:40:54.326Z,59.38
2019-03-12T18:43:44.270Z,59.41
2019-03-12T18:46:46.118Z,62.09
2019-03-12T18:49:31.060Z,62.78
2019-03-12T18:52:02.429Z,62.78
2019-03-12T18:54:52.279Z,62.76
2019-03-12T18:57:42.084Z,63.36
2019-03-12T19:00:31.998Z,63.70
2019-03-12T19:03:40.792Z,65.01
2019-03-12T19:06:30.717Z,64.99
2019-03-12T19:09:20.575Z,64.99
2019-03-12T19:12:10.521Z,65.83
2019-03-12T19:15:00.493Z,66.35
2019-03-12T19:17:30.894Z,66.43
2019-03-12T19:20:20.730Z,66.67
2019-03-12T19:23:10.655Z,66.81
2019-03-12T19:26:00.464Z,66.79
2019-03-12T19:28:50.300Z,66.57
2019-03-12T19:32:17.995Z,65.86
2019-03-12T19:35:11.279Z,65.86
2019-03-12T19:38:01.533Z,64.89
2019-03-12T19:40:51.598Z,64.69
2019-03-12T19:43:41.455Z,64.99
2019-03-12T19:46:31.471Z,65.55
2019-03-12T19:49:01.973Z,65.43
2019-03-12T19:51:51.830Z,65.24
2019-03-12T19:54:41.789Z,65.02
2019-03-12T19:57:31.752Z,65.19
2019-03-12T20:03:18.629Z,65.21
2019-03-12T20:06:08.544Z,65.13
2019-03-12T20:08:58.439Z,65.44
2019-03-12T20:12:26.447Z,65.52
2019-03-12T20:15:54.406Z,65.93
2019-03-12T20:19:22.311Z,66.22
2019-03-12T20:22:30.811Z,66.27
2019-03-12T20:25:58.733Z,66.11
2019-03-12T20:29:15.398Z,66.01
2019-03-12T20:32:25.132Z,64.81
2019-03-12T20:35:53.052Z,64.12
2019-03-12T20:39:02.147Z,63.94
2019-03-12T20:42:30.065Z,63.84
2019-03-12T20:45:58.028Z,63.12
2019-03-12T20:49:25.966Z,62.86
2019-03-12T20:52:53.976Z,62.94
2019-03-12T20:56:21.998Z,62.31
2019-03-12T20:59:49.915Z,61.89
2019-03-12T21:03:17.829Z,61.42
2019-03-12T21:06:45.813Z,61.11
2019-03-12T21:10:13.733Z,61.75
2019-03-12T21:13:22.406Z,62.05
2019-03-12T21:16:50.371Z,61.44
2019-03-12T21:20:18.331Z,60.20
2019-03-12T21:23:46.279Z,60.30
2019-03-12T21:27:14.220Z,60.50
2019-03-12T21:30:02.348Z,60.00
2019-03-12T21:32:52.346Z,59.99
2019-03-12T21:35:53.379Z,60.16
2019-03-12T21:38:26.032Z,60.16
2019-03-12T21:41:15.993Z,60.19
2019-03-12T21:47:11.161Z,60.30
2019-03-12T21:50:01.007Z,60.80
2019-03-12T21:52:50.882Z,61.02
2019-03-12T21:55:40.703Z,61.02
2019-03-12T21:58:11.292Z,61.02
2019-03-12T22:01:01.118Z,61.36
2019-03-12T22:03:51.099Z,61.75
2019-03-12T22:06:40.946Z,61.77
2019-03-12T22:09:31.013Z,61.77
2019-03-12T22:12:20.848Z,62.32
2019-03-12T22:15:10.863Z,62.66
2019-03-12T22:17:41.357Z,63.04
2019-03-12T22:20:12.079Z,63.83
2019-03-12T22:25:55.851Z,63.93
2019-03-12T22:28:30.482Z,64.32
2019-03-12T22:31:20.343Z,64.74
2019-03-12T22:34:10.173Z,64.92
2019-03-12T22:37:00.426Z,64.62
2019-03-12T22:39:50.245Z,64.29
2019-03-12T22:42:27.054Z,63.93
2019-03-12T22:45:16.977Z,64.05
2019-03-12T22:48:06.911Z,63.35
2019-03-12T22:50:56.831Z,63.22
2019-03-12T22:53:46.682Z,62.90
2019-03-12T22:56:36.562Z,62.45
2019-03-12T22:59:26.401Z,62.36
2019-03-12T23:02:16.326Z,62.31
2019-03-12T23:05:06.492Z,61.88
2019-03-12T23:07:56.338Z,61.31
2019-03-12T23:10:46.381Z,60.19
2019-03-12T23:13:36.350Z,59.52
2019-03-12T23:16:26.208Z,59.06
2019-03-12T23:18:56.692Z,58.50
2019-03-12T23:21:46.486Z,58.04
2019-03-12T23:24:36.344Z,58.11
2019-03-12T23:27:26.269Z,57.78
2019-03-12T23:29:56.714Z,57.43
2019-03-12T23:32:46.704Z,57.77
2019-03-12T23:35:48.535Z,57.76
2019-03-12T23:38:32.866Z,57.64
2019-03-12T23:41:05.730Z,57.64
2019-03-12T23:43:55.525Z,57.77
2019-03-12T23:46:45.378Z,57.44
2019-03-12T23:49:35.213Z,57.41
2019-03-12T23:52:05.686Z,57.36
2019-03-12T23:54:55.543Z,57.00
2019-03-12T23:57:56.727Z,56.80
